sensor_id;sensor_type;location;lat;lon;timestamp;temperature;humidity
506;DHT22;551;48.524;9.056;2022-10-16T00:00:37;17.70;1.00
506;DHT22;551;48.524;9.056;2022-10-16T00:03:06;17.40;1.00
506;DHT22;551;48.524;9.056;2022-10-16T00:05:32;18.40;1.00
506;DHT22;551;48.524;9.056;2022-10-16T00:07:58;17.60;1.00
506;DHT22;551;48.524;9.056;2022-10-16T00:10:24;15.70;1.00
506;DHT22;551;48.524;9.056;2022-10-16T00:12:49;15.90;1.00
506;DHT22;551;48.524;9.056;2022-10-16T00:15:15;15.60;1.00
506;DHT22;551;48.524;9.056;2022-10-16T00:17:41;15.80;1.00
506;DHT22;551;48.524;9.056;2022-10-16T00:20:06;17.40;1.00
506;DHT22;551;48.524;9.056;2022-10-16T00:22:32;15.70;1.00
506;DHT22;551;48.524;9.056;2022-10-16T00:24:58;15.70;1.00
506;DHT22;551;48.524;9.056;2022-10-16T00:27:23;17.00;1.00
506;DHT22;551;48.524;9.056;2022-10-16T00:29:50;15.30;1.00
506;DHT22;551;48.524;9.056;2022-10-16T00:32:17;15.30;1.00
506;DHT22;551;48.524;9.056;2022-10-16T00:34:42;15.50;1.00
506;DHT22;551;48.524;9.056;2022-10-16T00:37:08;15.50;1.00
506;DHT22;551;48.524;9.056;2022-10-16T00:39:33;16.70;1.00
506;DHT22;551;48.524;9.056;2022-10-16T00:41:59;15.40;1.00
506;DHT22;551;48.524;9.056;2022-10-16T00:44:46;15.10;1.00
506;DHT22;551;48.524;9.056;2022-10-16T00:47:26;16.80;1.00
506;DHT22;551;48.524;9.056;2022-10-16T00:49:59;15.40;1.00
506;DHT22;551;48.524;9.056;2022-10-16T00:52:26;15.40;1.00
506;DHT22;551;48.524;9.056;2022-10-16T00:54:52;15.00;1.00
506;DHT22;551;48.524;9.056;2022-10-16T00:57:20;15.10;1.00
506;DHT22;551;48.524;9.056;2022-10-16T00:59:46;15.10;1.00
506;DHT22;551;48.524;9.056;2022-10-16T01:02:14;16.10;1.00
506;DHT22;551;48.524;9.056;2022-10-16T01:04:51;15.00;1.00
506;DHT22;551;48.524;9.056;2022-10-16T01:10:10;15.30;1.00
506;DHT22;551;48.524;9.056;2022-10-16T01:15:22;15.40;1.00
506;DHT22;551;48.524;9.056;2022-10-16T01:18:07;15.10;1.00
506;DHT22;551;48.524;9.056;2022-10-16T01:20:38;15.50;1.00
506;DHT22;551;48.524;9.056;2022-10-16T01:26:20;15.40;1.00
506;DHT22;551;48.524;9.056;2022-10-16T01:28:57;15.40;1.00
506;DHT22;551;48.524;9.056;2022-10-16T01:31:26;15.20;1.00
506;DHT22;551;48.524;9.056;2022-10-16T01:34:04;15.00;1.00
506;DHT22;551;48.524;9.056;2022-10-16T01:36:39;15.00;1.00
506;DHT22;551;48.524;9.056;2022-10-16T01:39:11;15.40;1.00
506;DHT22;551;48.524;9.056;2022-10-16T01:41:41;15.00;1.00
506;DHT22;551;48.524;9.056;2022-10-16T01:44:13;17.50;1.00
506;DHT22;551;48.524;9.056;2022-10-16T01:46:44;15.00;1.00
506;DHT22;551;48.524;9.056;2022-10-16T01:49:12;15.40;1.00
506;DHT22;551;48.524;9.056;2022-10-16T01:51:38;15.10;1.00
506;DHT22;551;48.524;9.056;2022-10-16T01:54:07;15.10;1.00
506;DHT22;551;48.524;9.056;2022-10-16T01:56:35;16.90;1.00
506;DHT22;551;48.524;9.056;2022-10-16T01:59:09;14.70;1.00
506;DHT22;551;48.524;9.056;2022-10-16T02:01:39;15.50;1.00
506;DHT22;551;48.524;9.056;2022-10-16T02:04:28;14.70;1.00
506;DHT22;551;48.524;9.056;2022-10-16T02:06:54;15.50;1.00
506;DHT22;551;48.524;9.056;2022-10-16T02:09:20;17.20;1.00
506;DHT22;551;48.524;9.056;2022-10-16T02:11:46;16.30;1.00
506;DHT22;551;48.524;9.056;2022-10-16T02:14:14;15.20;1.00
506;DHT22;551;48.524;9.056;2022-10-16T02:16:45;14.90;1.00
506;DHT22;551;48.524;9.056;2022-10-16T02:19:15;15.60;1.00
506;DHT22;551;48.524;9.056;2022-10-16T02:21:50;15.20;1.00
506;DHT22;551;48.524;9.056;2022-10-16T02:24:39;15.60;1.00
506;DHT22;551;48.524;9.056;2022-10-16T02:27:31;17.40;1.00
506;DHT22;551;48.524;9.056;2022-10-16T02:30:06;15.30;1.00
506;DHT22;551;48.524;9.056;2022-10-16T02:32:34;15.60;1.00
506;DHT22;551;48.524;9.056;2022-10-16T02:35:02;15.70;1.00
506;DHT22;551;48.524;9.056;2022-10-16T02:37:28;15.60;1.00
506;DHT22;551;48.524;9.056;2022-10-16T02:39:56;15.30;1.00
506;DHT22;551;48.524;9.056;2022-10-16T02:42:28;15.20;1.00
506;DHT22;551;48.524;9.056;2022-10-16T02:44:53;15.30;1.00
506;DHT22;551;48.524;9.056;2022-10-16T02:47:19;15.10;1.00
506;DHT22;551;48.524;9.056;2022-10-16T02:49:44;15.20;1.00
506;DHT22;551;48.524;9.056;2022-10-16T02:52:10;14.90;1.00
506;DHT22;551;48.524;9.056;2022-10-16T02:54:35;17.70;1.00
506;DHT22;551;48.524;9.056;2022-10-16T02:57:01;17.90;1.00
506;DHT22;551;48.524;9.056;2022-10-16T02:59:26;17.40;1.00
506;DHT22;551;48.524;9.056;2022-10-16T03:01:52;16.40;1.00
506;DHT22;551;48.524;9.056;2022-10-16T03:04:17;17.10;1.00
506;DHT22;551;48.524;9.056;2022-10-16T03:06:43;15.50;1.00
506;DHT22;551;48.524;9.056;2022-10-16T03:09:08;17.20;1.00
506;DHT22;551;48.524;9.056;2022-10-16T03:11:34;16.20;1.00
506;DHT22;551;48.524;9.056;2022-10-16T03:14:00;17.30;1.00
506;DHT22;551;48.524;9.056;2022-10-16T03:16:25;15.00;1.00
506;DHT22;551;48.524;9.056;2022-10-16T03:18:51;15.30;1.00
506;DHT22;551;48.524;9.056;2022-10-16T03:21:16;15.00;1.00
506;DHT22;551;48.524;9.056;2022-10-16T03:23:42;15.00;1.00
506;DHT22;551;48.524;9.056;2022-10-16T03:26:07;14.70;1.00
506;DHT22;551;48.524;9.056;2022-10-16T03:28:33;15.00;1.00
506;DHT22;551;48.524;9.056;2022-10-16T03:30:58;15.10;1.00
506;DHT22;551;48.524;9.056;2022-10-16T03:33:24;14.90;1.00
506;DHT22;551;48.524;9.056;2022-10-16T03:35:54;14.60;1.00
506;DHT22;551;48.524;9.056;2022-10-16T03:38:20;15.00;1.00
506;DHT22;551;48.524;9.056;2022-10-16T03:40:46;16.30;1.00
506;DHT22;551;48.524;9.056;2022-10-16T03:43:12;15.20;1.00
506;DHT22;551;48.524;9.056;2022-10-16T03:45:37;15.10;1.00
506;DHT22;551;48.524;9.056;2022-10-16T03:48:03;15.10;1.00
506;DHT22;551;48.524;9.056;2022-10-16T03:50:29;15.20;1.00
506;DHT22;551;48.524;9.056;2022-10-16T03:52:55;15.00;1.00
506;DHT22;551;48.524;9.056;2022-10-16T03:55:20;14.80;1.00
506;DHT22;551;48.524;9.056;2022-10-16T03:57:46;14.90;1.00
506;DHT22;551;48.524;9.056;2022-10-16T04:00:12;14.90;1.00
506;DHT22;551;48.524;9.056;2022-10-16T04:02:38;15.20;1.00
506;DHT22;551;48.524;9.056;2022-10-16T04:05:04;15.10;1.00
506;DHT22;551;48.524;9.056;2022-10-16T04:07:29;15.30;1.00
506;DHT22;551;48.524;9.056;2022-10-16T04:09:55;16.50;1.00
506;DHT22;551;48.524;9.056;2022-10-16T04:12:22;15.20;1.00
506;DHT22;551;48.524;9.056;2022-10-16T04:14:48;14.90;1.00
506;DHT22;551;48.524;9.056;2022-10-16T04:17:13;15.00;1.00
506;DHT22;551;48.524;9.056;2022-10-16T04:19:39;14.90;1.00
506;DHT22;551;48.524;9.056;2022-10-16T04:22:04;14.80;1.00
506;DHT22;551;48.524;9.056;2022-10-16T04:24:30;14.80;1.00
506;DHT22;551;48.524;9.056;2022-10-16T04:26:55;14.40;1.00
506;DHT22;551;48.524;9.056;2022-10-16T04:29:21;14.60;1.00
506;DHT22;551;48.524;9.056;2022-10-16T04:31:46;14.80;1.00
506;DHT22;551;48.524;9.056;2022-10-16T04:34:12;14.80;1.00
506;DHT22;551;48.524;9.056;2022-10-16T04:36:37;15.90;1.00
506;DHT22;551;48.524;9.056;2022-10-16T04:39:03;15.00;1.00
506;DHT22;551;48.524;9.056;2022-10-16T04:41:28;14.80;1.00
506;DHT22;551;48.524;9.056;2022-10-16T04:43:54;14.80;1.00
506;DHT22;551;48.524;9.056;2022-10-16T04:46:19;15.00;1.00
506;DHT22;551;48.524;9.056;2022-10-16T04:48:45;14.10;1.00
506;DHT22;551;48.524;9.056;2022-10-16T04:51:12;14.40;1.00
506;DHT22;551;48.524;9.056;2022-10-16T04:53:37;16.70;1.00
506;DHT22;551;48.524;9.056;2022-10-16T04:56:03;14.80;1.00
506;DHT22;551;48.524;9.056;2022-10-16T04:58:29;15.10;1.00
506;DHT22;551;48.524;9.056;2022-10-16T05:00:54;14.80;1.00
506;DHT22;551;48.524;9.056;2022-10-16T05:03:20;14.80;1.00
506;DHT22;551;48.524;9.056;2022-10-16T05:05:46;14.70;1.00
506;DHT22;551;48.524;9.056;2022-10-16T05:08:12;14.40;1.00
506;DHT22;551;48.524;9.056;2022-10-16T05:10:38;14.70;1.00
506;DHT22;551;48.524;9.056;2022-10-16T05:13:04;14.50;1.00
506;DHT22;551;48.524;9.056;2022-10-16T05:15:29;17.00;1.00
506;DHT22;551;48.524;9.056;2022-10-16T05:17:55;14.60;1.00
506;DHT22;551;48.524;9.056;2022-10-16T05:20:21;16.40;1.00
506;DHT22;551;48.524;9.056;2022-10-16T05:22:47;14.50;1.00
506;DHT22;551;48.524;9.056;2022-10-16T05:25:13;15.60;1.00
506;DHT22;551;48.524;9.056;2022-10-16T05:27:38;14.70;1.00
506;DHT22;551;48.524;9.056;2022-10-16T05:30:04;14.40;1.00
506;DHT22;551;48.524;9.056;2022-10-16T05:32:30;14.70;1.00
506;DHT22;551;48.524;9.056;2022-10-16T05:34:55;16.80;1.00
506;DHT22;551;48.524;9.056;2022-10-16T05:37:21;15.50;1.00
506;DHT22;551;48.524;9.056;2022-10-16T05:39:47;14.20;1.00
506;DHT22;551;48.524;9.056;2022-10-16T05:42:12;15.60;1.00
506;DHT22;551;48.524;9.056;2022-10-16T05:44:38;15.90;1.00
506;DHT22;551;48.524;9.056;2022-10-16T05:47:03;14.10;1.00
506;DHT22;551;48.524;9.056;2022-10-16T05:49:30;14.30;1.00
506;DHT22;551;48.524;9.056;2022-10-16T05:51:55;14.10;1.00
506;DHT22;551;48.524;9.056;2022-10-16T05:54:21;13.40;1.00
506;DHT22;551;48.524;9.056;2022-10-16T05:56:46;14.40;1.00
506;DHT22;551;48.524;9.056;2022-10-16T05:59:12;13.70;1.00
506;DHT22;551;48.524;9.056;2022-10-16T06:01:40;14.40;1.00
506;DHT22;551;48.524;9.056;2022-10-16T06:04:05;14.30;1.00
506;DHT22;551;48.524;9.056;2022-10-16T06:06:31;15.60;1.00
506;DHT22;551;48.524;9.056;2022-10-16T06:08:57;14.60;1.00
506;DHT22;551;48.524;9.056;2022-10-16T06:11:25;14.70;1.00
506;DHT22;551;48.524;9.056;2022-10-16T06:13:53;15.60;1.00
506;DHT22;551;48.524;9.056;2022-10-16T06:16:19;14.70;1.00
506;DHT22;551;48.524;9.056;2022-10-16T06:18:47;16.80;1.00
506;DHT22;551;48.524;9.056;2022-10-16T06:21:17;14.50;1.00
506;DHT22;551;48.524;9.056;2022-10-16T06:23:43;14.80;1.00
506;DHT22;551;48.524;9.056;2022-10-16T06:26:11;14.90;1.00
506;DHT22;551;48.524;9.056;2022-10-16T06:28:37;14.80;1.00
506;DHT22;551;48.524;9.056;2022-10-16T06:31:04;16.10;1.00
506;DHT22;551;48.524;9.056;2022-10-16T06:33:30;15.30;1.00
506;DHT22;551;48.524;9.056;2022-10-16T06:36:09;15.20;1.00
506;DHT22;551;48.524;9.056;2022-10-16T06:38:36;15.90;1.00
506;DHT22;551;48.524;9.056;2022-10-16T06:41:03;15.80;1.00
506;DHT22;551;48.524;9.056;2022-10-16T06:43:30;16.40;1.00
506;DHT22;551;48.524;9.056;2022-10-16T06:46:01;16.40;1.00
506;DHT22;551;48.524;9.056;2022-10-16T06:48:27;16.40;1.00
506;DHT22;551;48.524;9.056;2022-10-16T06:51:01;18.00;1.00
506;DHT22;551;48.524;9.056;2022-10-16T06:53:30;16.90;1.00
506;DHT22;551;48.524;9.056;2022-10-16T06:55:56;16.60;1.00
506;DHT22;551;48.524;9.056;2022-10-16T06:58:22;16.60;1.00
506;DHT22;551;48.524;9.056;2022-10-16T07:00:48;18.00;1.00
506;DHT22;551;48.524;9.056;2022-10-16T07:03:14;18.50;1.00
506;DHT22;551;48.524;9.056;2022-10-16T07:05:41;16.40;1.00
506;DHT22;551;48.524;9.056;2022-10-16T07:08:07;16.60;1.00
506;DHT22;551;48.524;9.056;2022-10-16T07:10:33;16.60;1.00
506;DHT22;551;48.524;9.056;2022-10-16T07:12:59;16.70;1.00
506;DHT22;551;48.524;9.056;2022-10-16T07:15:25;17.00;1.00
506;DHT22;551;48.524;9.056;2022-10-16T07:17:51;17.10;1.00
506;DHT22;551;48.524;9.056;2022-10-16T07:20:17;16.70;1.00
506;DHT22;551;48.524;9.056;2022-10-16T07:22:43;17.90;1.00
506;DHT22;551;48.524;9.056;2022-10-16T07:25:08;19.20;1.00
506;DHT22;551;48.524;9.056;2022-10-16T07:27:34;16.90;1.00
506;DHT22;551;48.524;9.056;2022-10-16T07:30:00;17.20;1.00
506;DHT22;551;48.524;9.056;2022-10-16T07:32:26;17.30;1.00
506;DHT22;551;48.524;9.056;2022-10-16T07:34:52;17.40;1.00
506;DHT22;551;48.524;9.056;2022-10-16T07:37:18;17.50;1.00
506;DHT22;551;48.524;9.056;2022-10-16T07:39:43;18.50;1.00
506;DHT22;551;48.524;9.056;2022-10-16T07:42:09;18.70;1.00
506;DHT22;551;48.524;9.056;2022-10-16T07:44:35;20.40;1.00
506;DHT22;551;48.524;9.056;2022-10-16T07:47:01;20.40;1.00
506;DHT22;551;48.524;9.056;2022-10-16T07:49:27;20.50;1.00
506;DHT22;551;48.524;9.056;2022-10-16T07:51:52;20.80;1.00
506;DHT22;551;48.524;9.056;2022-10-16T07:54:18;18.20;1.00
506;DHT22;551;48.524;9.056;2022-10-16T07:56:43;18.50;1.00
506;DHT22;551;48.524;9.056;2022-10-16T07:59:09;18.80;1.00
506;DHT22;551;48.524;9.056;2022-10-16T08:01:34;18.70;1.00
506;DHT22;551;48.524;9.056;2022-10-16T08:04:00;18.70;1.00
506;DHT22;551;48.524;9.056;2022-10-16T08:06:25;18.60;1.00
506;DHT22;551;48.524;9.056;2022-10-16T08:08:51;18.70;1.00
506;DHT22;551;48.524;9.056;2022-10-16T08:11:16;18.80;1.00
506;DHT22;551;48.524;9.056;2022-10-16T08:13:42;18.60;1.00
506;DHT22;551;48.524;9.056;2022-10-16T08:16:08;18.90;1.00
506;DHT22;551;48.524;9.056;2022-10-16T08:18:35;19.20;1.00
506;DHT22;551;48.524;9.056;2022-10-16T08:21:01;21.70;1.00
506;DHT22;551;48.524;9.056;2022-10-16T08:23:28;20.20;1.00
506;DHT22;551;48.524;9.056;2022-10-16T08:25:54;20.40;1.00
506;DHT22;551;48.524;9.056;2022-10-16T08:28:20;20.50;1.00
506;DHT22;551;48.524;9.056;2022-10-16T08:30:46;20.80;1.00
506;DHT22;551;48.524;9.056;2022-10-16T08:33:12;21.30;1.00
506;DHT22;551;48.524;9.056;2022-10-16T08:35:37;21.80;1.00
506;DHT22;551;48.524;9.056;2022-10-16T08:38:04;21.20;1.00
506;DHT22;551;48.524;9.056;2022-10-16T08:40:31;23.50;1.00
506;DHT22;551;48.524;9.056;2022-10-16T08:51:08;20.90;1.00
506;DHT22;551;48.524;9.056;2022-10-16T08:53:49;22.10;1.00
506;DHT22;551;48.524;9.056;2022-10-16T08:56:17;22.00;1.00
506;DHT22;551;48.524;9.056;2022-10-16T08:58:43;21.70;1.00
506;DHT22;551;48.524;9.056;2022-10-16T09:01:15;20.60;1.00
506;DHT22;551;48.524;9.056;2022-10-16T09:03:58;20.60;1.00
506;DHT22;551;48.524;9.056;2022-10-16T09:25:31;26.10;1.00
506;DHT22;551;48.524;9.056;2022-10-16T09:27:57;26.50;1.00
506;DHT22;551;48.524;9.056;2022-10-16T09:30:26;28.20;1.00
506;DHT22;551;48.524;9.056;2022-10-16T09:32:53;29.30;1.00
506;DHT22;551;48.524;9.056;2022-10-16T09:35:31;29.40;1.00
506;DHT22;551;48.524;9.056;2022-10-16T09:37:57;28.50;1.00
506;DHT22;551;48.524;9.056;2022-10-16T09:45:55;31.60;1.00
506;DHT22;551;48.524;9.056;2022-10-16T09:48:21;31.20;1.00
506;DHT22;551;48.524;9.056;2022-10-16T09:51:02;29.80;1.00
506;DHT22;551;48.524;9.056;2022-10-16T09:53:43;29.70;1.00
506;DHT22;551;48.524;9.056;2022-10-16T09:56:10;28.40;1.00
506;DHT22;551;48.524;9.056;2022-10-16T09:58:42;28.50;1.00
506;DHT22;551;48.524;9.056;2022-10-16T10:01:13;27.00;1.00
506;DHT22;551;48.524;9.056;2022-10-16T10:03:41;26.90;1.00
506;DHT22;551;48.524;9.056;2022-10-16T10:06:28;27.40;1.00
506;DHT22;551;48.524;9.056;2022-10-16T10:08:56;27.30;1.00
506;DHT22;551;48.524;9.056;2022-10-16T10:11:42;26.30;1.00
506;DHT22;551;48.524;9.056;2022-10-16T10:14:20;26.90;1.00
506;DHT22;551;48.524;9.056;2022-10-16T10:16:47;25.70;1.00
506;DHT22;551;48.524;9.056;2022-10-16T10:19:21;28.20;1.00
506;DHT22;551;48.524;9.056;2022-10-16T10:21:47;27.70;1.00
506;DHT22;551;48.524;9.056;2022-10-16T10:24:14;28.20;1.00
506;DHT22;551;48.524;9.056;2022-10-16T10:26:49;28.80;1.00
506;DHT22;551;48.524;9.056;2022-10-16T10:32:18;29.70;1.00
506;DHT22;551;48.524;9.056;2022-10-16T10:40:43;35.00;1.00
506;DHT22;551;48.524;9.056;2022-10-16T10:46:03;35.50;1.00
506;DHT22;551;48.524;9.056;2022-10-16T10:48:56;36.30;1.00
506;DHT22;551;48.524;9.056;2022-10-16T10:54:29;36.80;1.00
506;DHT22;551;48.524;9.056;2022-10-16T10:57:09;37.80;1.00
506;DHT22;551;48.524;9.056;2022-10-16T11:02:37;38.50;1.00
506;DHT22;551;48.524;9.056;2022-10-16T11:10:38;38.60;1.00
506;DHT22;551;48.524;9.056;2022-10-16T11:16:23;38.30;1.00
506;DHT22;551;48.524;9.056;2022-10-16T11:19:05;37.90;1.00
506;DHT22;551;48.524;9.056;2022-10-16T11:21:48;37.60;1.00
506;DHT22;551;48.524;9.056;2022-10-16T11:24:51;37.70;1.00
506;DHT22;551;48.524;9.056;2022-10-16T11:27:24;37.80;1.00
506;DHT22;551;48.524;9.056;2022-10-16T11:29:59;37.70;1.00
506;DHT22;551;48.524;9.056;2022-10-16T11:32:33;37.50;1.00
506;DHT22;551;48.524;9.056;2022-10-16T11:35:08;37.40;1.00
506;DHT22;551;48.524;9.056;2022-10-16T11:37:41;37.60;1.00
506;DHT22;551;48.524;9.056;2022-10-16T11:40:32;37.40;1.00
506;DHT22;551;48.524;9.056;2022-10-16T11:43:24;37.30;1.00
506;DHT22;551;48.524;9.056;2022-10-16T11:45:53;37.20;1.00
506;DHT22;551;48.524;9.056;2022-10-16T11:51:05;37.30;1.00
506;DHT22;551;48.524;9.056;2022-10-16T11:56:25;38.00;1.00
506;DHT22;551;48.524;9.056;2022-10-16T11:59:08;38.10;1.00
506;DHT22;551;48.524;9.056;2022-10-16T12:01:42;38.00;1.00
506;DHT22;551;48.524;9.056;2022-10-16T12:04:26;38.50;1.00
506;DHT22;551;48.524;9.056;2022-10-16T12:07:06;38.30;1.00
506;DHT22;551;48.524;9.056;2022-10-16T12:09:37;38.20;1.00
506;DHT22;551;48.524;9.056;2022-10-16T12:12:04;37.40;1.00
506;DHT22;551;48.524;9.056;2022-10-16T12:14:38;36.20;1.00
506;DHT22;551;48.524;9.056;2022-10-16T12:17:35;35.30;1.00
506;DHT22;551;48.524;9.056;2022-10-16T12:25:25;35.60;1.00
506;DHT22;551;48.524;9.056;2022-10-16T12:27:59;36.10;1.00
506;DHT22;551;48.524;9.056;2022-10-16T12:30:27;36.00;1.00
506;DHT22;551;48.524;9.056;2022-10-16T12:32:55;35.60;1.00
506;DHT22;551;48.524;9.056;2022-10-16T12:35:26;35.70;1.00
506;DHT22;551;48.524;9.056;2022-10-16T12:37:52;35.90;1.00
506;DHT22;551;48.524;9.056;2022-10-16T12:40:45;36.10;1.00
506;DHT22;551;48.524;9.056;2022-10-16T12:43:36;36.50;1.00
506;DHT22;551;48.524;9.056;2022-10-16T12:46:20;36.50;1.00
506;DHT22;551;48.524;9.056;2022-10-16T12:48:46;36.80;1.00
506;DHT22;551;48.524;9.056;2022-10-16T12:54:17;36.70;1.00
506;DHT22;551;48.524;9.056;2022-10-16T12:59:48;37.10;1.00
506;DHT22;551;48.524;9.056;2022-10-16T13:05:21;35.70;1.00
506;DHT22;551;48.524;9.056;2022-10-16T13:08:03;35.20;1.00
506;DHT22;551;48.524;9.056;2022-10-16T13:13:32;33.10;1.00
506;DHT22;551;48.524;9.056;2022-10-16T13:16:30;32.00;1.00
506;DHT22;551;48.524;9.056;2022-10-16T13:19:14;31.70;1.00
506;DHT22;551;48.524;9.056;2022-10-16T13:21:56;30.40;1.00
506;DHT22;551;48.524;9.056;2022-10-16T13:30:19;30.20;1.00
506;DHT22;551;48.524;9.056;2022-10-16T13:32:58;29.00;1.00
506;DHT22;551;48.524;9.056;2022-10-16T13:35:28;29.50;1.00
506;DHT22;551;48.524;9.056;2022-10-16T13:38:15;28.70;1.00
506;DHT22;551;48.524;9.056;2022-10-16T13:41:14;28.90;1.00
506;DHT22;551;48.524;9.056;2022-10-16T13:48:40;29.20;1.00
506;DHT22;551;48.524;9.056;2022-10-16T13:51:20;28.90;1.00
506;DHT22;551;48.524;9.056;2022-10-16T13:53:46;28.60;1.00
506;DHT22;551;48.524;9.056;2022-10-16T13:56:16;29.50;1.00
506;DHT22;551;48.524;9.056;2022-10-16T13:58:43;28.20;1.00
506;DHT22;551;48.524;9.056;2022-10-16T14:01:20;28.30;1.00
506;DHT22;551;48.524;9.056;2022-10-16T14:03:48;28.30;1.00
506;DHT22;551;48.524;9.056;2022-10-16T14:06:17;28.50;1.00
506;DHT22;551;48.524;9.056;2022-10-16T14:08:46;28.40;1.00
506;DHT22;551;48.524;9.056;2022-10-16T14:11:21;28.50;1.00
506;DHT22;551;48.524;9.056;2022-10-16T14:13:47;27.50;1.00
506;DHT22;551;48.524;9.056;2022-10-16T14:16:27;28.60;1.00
506;DHT22;551;48.524;9.056;2022-10-16T14:18:57;27.30;1.00
506;DHT22;551;48.524;9.056;2022-10-16T14:21:23;27.30;1.00
506;DHT22;551;48.524;9.056;2022-10-16T14:23:49;27.90;1.00
506;DHT22;551;48.524;9.056;2022-10-16T14:26:18;27.10;1.00
506;DHT22;551;48.524;9.056;2022-10-16T14:28:44;27.80;1.00
506;DHT22;551;48.524;9.056;2022-10-16T14:31:31;27.10;1.00
506;DHT22;551;48.524;9.056;2022-10-16T14:33:59;27.50;1.00
506;DHT22;551;48.524;9.056;2022-10-16T14:36:26;26.90;1.00
506;DHT22;551;48.524;9.056;2022-10-16T14:39:02;27.80;1.00
506;DHT22;551;48.524;9.056;2022-10-16T14:41:30;28.00;1.00
506;DHT22;551;48.524;9.056;2022-10-16T14:44:01;26.90;1.00
506;DHT22;551;48.524;9.056;2022-10-16T14:46:34;26.90;1.00
506;DHT22;551;48.524;9.056;2022-10-16T14:49:04;27.30;1.00
506;DHT22;551;48.524;9.056;2022-10-16T14:51:39;27.80;1.00
506;DHT22;551;48.524;9.056;2022-10-16T14:54:14;27.30;1.00
506;DHT22;551;48.524;9.056;2022-10-16T14:57:13;26.80;1.00
506;DHT22;551;48.524;9.056;2022-10-16T14:59:42;27.50;1.00
506;DHT22;551;48.524;9.056;2022-10-16T15:02:27;27.50;1.00
506;DHT22;551;48.524;9.056;2022-10-16T15:04:53;26.50;1.00
506;DHT22;551;48.524;9.056;2022-10-16T15:07:19;26.40;1.00
506;DHT22;551;48.524;9.056;2022-10-16T15:09:44;26.40;1.00
506;DHT22;551;48.524;9.056;2022-10-16T15:12:10;26.70;1.00
506;DHT22;551;48.524;9.056;2022-10-16T15:14:36;25.90;1.00
506;DHT22;551;48.524;9.056;2022-10-16T15:17:02;25.60;1.00
506;DHT22;551;48.524;9.056;2022-10-16T15:19:27;25.50;1.00
506;DHT22;551;48.524;9.056;2022-10-16T15:21:53;26.10;1.00
506;DHT22;551;48.524;9.056;2022-10-16T15:24:18;25.30;1.00
506;DHT22;551;48.524;9.056;2022-10-16T15:26:44;26.40;1.00
506;DHT22;551;48.524;9.056;2022-10-16T15:29:11;26.00;1.00
506;DHT22;551;48.524;9.056;2022-10-16T15:31:37;26.00;1.00
506;DHT22;551;48.524;9.056;2022-10-16T15:34:03;25.80;1.00
506;DHT22;551;48.524;9.056;2022-10-16T15:36:33;25.30;1.00
506;DHT22;551;48.524;9.056;2022-10-16T15:39:02;25.60;1.00
506;DHT22;551;48.524;9.056;2022-10-16T15:41:27;26.50;1.00
506;DHT22;551;48.524;9.056;2022-10-16T15:43:53;26.00;1.00
506;DHT22;551;48.524;9.056;2022-10-16T15:46:20;25.00;1.00
506;DHT22;551;48.524;9.056;2022-10-16T15:48:47;25.70;1.00
506;DHT22;551;48.524;9.056;2022-10-16T15:51:13;25.40;1.00
506;DHT22;551;48.524;9.056;2022-10-16T15:53:39;24.60;1.00
506;DHT22;551;48.524;9.056;2022-10-16T15:56:07;25.50;1.00
506;DHT22;551;48.524;9.056;2022-10-16T15:58:33;24.40;1.00
506;DHT22;551;48.524;9.056;2022-10-16T16:00:59;24.30;1.00
506;DHT22;551;48.524;9.056;2022-10-16T16:03:29;24.10;1.00
506;DHT22;551;48.524;9.056;2022-10-16T16:05:55;24.90;1.00
506;DHT22;551;48.524;9.056;2022-10-16T16:08:21;24.20;1.00
506;DHT22;551;48.524;9.056;2022-10-16T16:11:19;23.70;1.00
506;DHT22;551;48.524;9.056;2022-10-16T16:13:45;23.10;1.00
506;DHT22;551;48.524;9.056;2022-10-16T16:16:13;23.50;1.00
506;DHT22;551;48.524;9.056;2022-10-16T16:18:39;22.80;1.00
506;DHT22;551;48.524;9.056;2022-10-16T16:21:05;22.70;1.00
506;DHT22;551;48.524;9.056;2022-10-16T16:23:34;23.00;1.00
506;DHT22;551;48.524;9.056;2022-10-16T16:26:10;22.40;1.00
506;DHT22;551;48.524;9.056;2022-10-16T16:28:37;22.10;1.00
506;DHT22;551;48.524;9.056;2022-10-16T16:31:06;22.00;1.00
506;DHT22;551;48.524;9.056;2022-10-16T16:33:32;21.50;1.00
506;DHT22;551;48.524;9.056;2022-10-16T16:35:59;21.30;1.00
506;DHT22;551;48.524;9.056;2022-10-16T16:38:25;21.20;1.00
506;DHT22;551;48.524;9.056;2022-10-16T16:40:51;21.00;1.00
506;DHT22;551;48.524;9.056;2022-10-16T16:43:17;20.80;1.00
506;DHT22;551;48.524;9.056;2022-10-16T16:45:43;21.10;1.00
506;DHT22;551;48.524;9.056;2022-10-16T16:48:09;21.20;1.00
506;DHT22;551;48.524;9.056;2022-10-16T16:50:37;20.60;1.00
506;DHT22;551;48.524;9.056;2022-10-16T16:53:03;20.60;1.00
506;DHT22;551;48.524;9.056;2022-10-16T16:55:29;21.70;1.00
506;DHT22;551;48.524;9.056;2022-10-16T16:57:54;20.30;1.00
506;DHT22;551;48.524;9.056;2022-10-16T17:00:20;20.10;1.00
506;DHT22;551;48.524;9.056;2022-10-16T17:02:48;21.10;1.00
506;DHT22;551;48.524;9.056;2022-10-16T17:05:14;20.10;1.00
506;DHT22;551;48.524;9.056;2022-10-16T17:07:40;20.00;1.00
506;DHT22;551;48.524;9.056;2022-10-16T17:10:06;19.60;1.00
506;DHT22;551;48.524;9.056;2022-10-16T17:12:35;19.80;1.00
506;DHT22;551;48.524;9.056;2022-10-16T17:15:01;19.50;1.00
506;DHT22;551;48.524;9.056;2022-10-16T17:17:26;19.60;1.00
506;DHT22;551;48.524;9.056;2022-10-16T17:19:52;19.10;1.00
506;DHT22;551;48.524;9.056;2022-10-16T17:22:18;19.10;1.00
506;DHT22;551;48.524;9.056;2022-10-16T17:24:44;18.90;1.00
506;DHT22;551;48.524;9.056;2022-10-16T17:27:09;20.20;1.00
506;DHT22;551;48.524;9.056;2022-10-16T17:29:37;19.80;1.00
506;DHT22;551;48.524;9.056;2022-10-16T17:32:03;19.20;1.00
506;DHT22;551;48.524;9.056;2022-10-16T17:34:28;19.10;1.00
506;DHT22;551;48.524;9.056;2022-10-16T17:36:54;18.50;1.00
506;DHT22;551;48.524;9.056;2022-10-16T17:39:19;18.80;1.00
506;DHT22;551;48.524;9.056;2022-10-16T17:41:46;19.70;1.00
506;DHT22;551;48.524;9.056;2022-10-16T17:44:12;19.10;1.00
506;DHT22;551;48.524;9.056;2022-10-16T17:46:51;18.20;1.00
506;DHT22;551;48.524;9.056;2022-10-16T17:49:18;18.60;1.00
506;DHT22;551;48.524;9.056;2022-10-16T17:51:45;18.60;1.00
506;DHT22;551;48.524;9.056;2022-10-16T17:54:11;18.10;1.00
506;DHT22;551;48.524;9.056;2022-10-16T17:56:39;19.30;1.00
506;DHT22;551;48.524;9.056;2022-10-16T17:59:04;20.50;1.00
506;DHT22;551;48.524;9.056;2022-10-16T18:01:36;19.30;1.00
506;DHT22;551;48.524;9.056;2022-10-16T18:04:10;18.50;1.00
506;DHT22;551;48.524;9.056;2022-10-16T18:06:37;18.20;1.00
506;DHT22;551;48.524;9.056;2022-10-16T18:09:03;17.70;1.00
506;DHT22;551;48.524;9.056;2022-10-16T18:11:29;18.90;1.00
506;DHT22;551;48.524;9.056;2022-10-16T18:13:57;17.50;1.00
506;DHT22;551;48.524;9.056;2022-10-16T18:16:24;17.20;1.00
506;DHT22;551;48.524;9.056;2022-10-16T18:18:50;19.10;1.00
506;DHT22;551;48.524;9.056;2022-10-16T18:21:17;17.70;1.00
506;DHT22;551;48.524;9.056;2022-10-16T18:23:44;17.20;1.00
506;DHT22;551;48.524;9.056;2022-10-16T18:26:10;17.50;1.00
506;DHT22;551;48.524;9.056;2022-10-16T18:28:36;19.30;1.00
506;DHT22;551;48.524;9.056;2022-10-16T18:31:08;18.50;1.00
506;DHT22;551;48.524;9.056;2022-10-16T18:33:36;17.70;1.00
506;DHT22;551;48.524;9.056;2022-10-16T18:36:08;19.00;1.00
506;DHT22;551;48.524;9.056;2022-10-16T18:38:35;17.20;1.00
506;DHT22;551;48.524;9.056;2022-10-16T18:41:01;17.00;1.00
506;DHT22;551;48.524;9.056;2022-10-16T18:43:33;17.20;1.00
506;DHT22;551;48.524;9.056;2022-10-16T18:46:11;18.20;1.00